sensor_id;sensor_type;location;lat;lon;timestamp;pressure;altitude;pressure_sealevel;temperature;humidity
51452;BME280;37521;52.020;-1.740;2022-08-11T00:01:11;100678.56;;;12.11;100.00
51452;BME280;37521;52.020;-1.740;2022-08-11T00:03:46;100676.22;;;12.04;100.00
51452;BME280;37521;52.020;-1.740;2022-08-11T00:06:23;100672.53;;;12.08;100.00
51452;BME280;37521;52.020;-1.740;2022-08-11T00:08:54;100676.22;;;12.04;100.00
51452;BME280;37521;52.020;-1.740;2022-08-11T00:11:31;100670.28;;;11.98;100.00
51452;BME280;37521;52.020;-1.740;2022-08-11T00:14:03;100677.78;;;11.87;100.00
51452;BME280;37521;52.020;-1.740;2022-08-11T00:16:40;100671.00;;;11.80;100.00
51452;BME280;37521;52.020;-1.740;2022-08-11T00:19:09;100671.94;;;11.79;100.00
51452;BME280;37521;52.020;-1.740;2022-08-11T00:21:40;100674.28;;;11.87;100.00
51452;BME280;37521;52.020;-1.740;2022-08-11T00:24:33;100676.00;;;11.88;100.00
51452;BME280;37521;52.020;-1.740;2022-08-11T00:27:19;100671.81;;;11.82;100.00
51452;BME280;37521;52.020;-1.740;2022-08-11T00:29:53;100667.66;;;11.75;100.00
51452;BME280;37521;52.020;-1.740;2022-08-11T00:32:21;100661.44;;;11.76;100.00
51452;BME280;37521;52.020;-1.740;2022-08-11T00:34:50;100673.66;;;11.80;100.00
51452;BME280;37521;52.020;-1.740;2022-08-11T00:37:44;100669.53;;;11.73;100.00
51452;BME280;37521;52.020;-1.740;2022-08-11T00:40:23;100662.84;;;11.64;100.00
51452;BME280;37521;52.020;-1.740;2022-08-11T00:43:00;100662.22;;;11.58;100.00
51452;BME280;37521;52.020;-1.740;2022-08-11T00:46:06;100665.75;;;11.57;100.00
51452;BME280;37521;52.020;-1.740;2022-08-11T00:48:47;100673.59;;;11.60;100.00
51452;BME280;37521;52.020;-1.740;2022-08-11T00:51:25;100654.91;;;11.64;100.00
51452;BME280;37521;52.020;-1.740;2022-08-11T00:54:35;100660.22;;;11.63;100.00
51452;BME280;37521;52.020;-1.740;2022-08-11T00:57:24;100650.56;;;11.62;100.00
51452;BME280;37521;52.020;-1.740;2022-08-11T01:00:12;100653.28;;;11.60;100.00
51452;BME280;37521;52.020;-1.740;2022-08-11T01:02:50;100650.78;;;11.57;100.00
51452;BME280;37521;52.020;-1.740;2022-08-11T01:05:40;100649.16;;;11.53;100.00
51452;BME280;37521;52.020;-1.740;2022-08-11T01:08:37;100649.25;;;11.52;100.00
51452;BME280;37521;52.020;-1.740;2022-08-11T01:20:56;100647.47;;;11.29;100.00
51452;BME280;37521;52.020;-1.740;2022-08-11T01:33:24;100638.50;;;11.11;100.00
51452;BME280;37521;52.020;-1.740;2022-08-11T01:36:36;100636.19;;;11.02;100.00
51452;BME280;37521;52.020;-1.740;2022-08-11T01:39:29;100638.03;;;11.00;100.00
51452;BME280;37521;52.020;-1.740;2022-08-11T01:42:23;100643.31;;;11.00;100.00
51452;BME280;37521;52.020;-1.740;2022-08-11T01:45:28;100634.47;;;11.01;100.00
51452;BME280;37521;52.020;-1.740;2022-08-11T01:48:02;100637.25;;;10.98;100.00
51452;BME280;37521;52.020;-1.740;2022-08-11T01:50:43;100641.47;;;11.02;100.00
51452;BME280;37521;52.020;-1.740;2022-08-11T01:53:25;100640.38;;;11.07;100.00
51452;BME280;37521;52.020;-1.740;2022-08-11T01:56:05;100642.25;;;11.05;100.00
51452;BME280;37521;52.020;-1.740;2022-08-11T01:58:43;100643.31;;;11.00;100.00
51452;BME280;37521;52.020;-1.740;2022-08-11T02:01:27;100644.31;;;10.97;100.00
51452;BME280;37521;52.020;-1.740;2022-08-11T02:04:08;100643.56;;;10.94;100.00
51452;BME280;37521;52.020;-1.740;2022-08-11T02:06:47;100640.13;;;10.91;100.00
51452;BME280;37521;52.020;-1.740;2022-08-11T02:09:32;100644.53;;;10.91;100.00
51452;BME280;37521;52.020;-1.740;2022-08-11T02:12:31;100647.00;;;10.96;100.00
51452;BME280;37521;52.020;-1.740;2022-08-11T02:15:13;100650.56;;;10.95;100.00
51452;BME280;37521;52.020;-1.740;2022-08-11T02:17:51;100647.00;;;10.96;100.00
51452;BME280;37521;52.020;-1.740;2022-08-11T02:20:25;100645.41;;;10.91;100.00
51452;BME280;37521;52.020;-1.740;2022-08-11T02:23:20;100641.03;;;10.90;100.00
51452;BME280;37521;52.020;-1.740;2022-08-11T02:26:24;100645.41;;;10.91;100.00
51452;BME280;37521;52.020;-1.740;2022-08-11T02:28:59;100643.44;;;10.97;100.00
51452;BME280;37521;52.020;-1.740;2022-08-11T02:31:46;100629.31;;;10.98;100.00
51452;BME280;37521;52.020;-1.740;2022-08-11T02:35:01;100639.25;;;10.91;100.00
51452;BME280;37521;52.020;-1.740;2022-08-11T02:37:40;100631.72;;;10.80;100.00
51452;BME280;37521;52.020;-1.740;2022-08-11T02:40:17;100636.50;;;10.71;100.00
51452;BME280;37521;52.020;-1.740;2022-08-11T02:43:00;100635.72;;;10.67;100.00
51452;BME280;37521;52.020;-1.740;2022-08-11T02:45:39;100632.53;;;10.59;100.00
51452;BME280;37521;52.020;-1.740;2022-08-11T02:48:19;100637.09;;;10.54;100.00
51452;BME280;37521;52.020;-1.740;2022-08-11T02:51:14;100632.63;;;10.56;100.00
51452;BME280;37521;52.020;-1.740;2022-08-11T02:53:56;100632.53;;;10.59;100.00
51452;BME280;37521;52.020;-1.740;2022-08-11T02:56:40;100643.88;;;10.61;100.00
51452;BME280;37521;52.020;-1.740;2022-08-11T02:59:22;100643.19;;;10.56;100.00
51452;BME280;37521;52.020;-1.740;2022-08-11T03:02:15;100644.94;;;10.57;100.00
51452;BME280;37521;52.020;-1.740;2022-08-11T03:05:03;100643.31;;;10.53;100.00
51452;BME280;37521;52.020;-1.740;2022-08-11T03:07:45;100639.66;;;10.57;100.00
51452;BME280;37521;52.020;-1.740;2022-08-11T03:10:21;100635.47;;;10.50;100.00
51452;BME280;37521;52.020;-1.740;2022-08-11T03:12:56;100636.59;;;10.43;100.00
51452;BME280;37521;52.020;-1.740;2022-08-11T03:15:47;100638.66;;;10.34;100.00
51452;BME280;37521;52.020;-1.740;2022-08-11T03:18:41;100646.78;;;10.30;100.00
51452;BME280;37521;52.020;-1.740;2022-08-11T03:21:19;100649.44;;;10.28;100.00
51452;BME280;37521;52.020;-1.740;2022-08-11T03:23:55;100647.91;;;10.21;100.00
51452;BME280;37521;52.020;-1.740;2022-08-11T03:26:29;100640.25;;;10.14;100.00
51452;BME280;37521;52.020;-1.740;2022-08-11T03:29:05;100646.53;;;10.09;100.00
51452;BME280;37521;52.020;-1.740;2022-08-11T03:31:43;100637.75;;;10.09;100.00
51452;BME280;37521;52.020;-1.740;2022-08-11T03:34:16;100641.31;;;10.08;100.00
51452;BME280;37521;52.020;-1.740;2022-08-11T03:40:10;100648.75;;;9.97;100.00
51452;BME280;37521;52.020;-1.740;2022-08-11T03:42:42;100645.28;;;9.95;100.00
51452;BME280;37521;52.020;-1.740;2022-08-11T03:45:21;100645.28;;;9.95;100.00
51452;BME280;37521;52.020;-1.740;2022-08-11T03:48:03;100640.06;;;9.93;100.00
51452;BME280;37521;52.020;-1.740;2022-08-11T03:50:54;100645.19;;;9.98;100.00
51452;BME280;37521;52.020;-1.740;2022-08-11T03:53:47;100640.13;;;9.92;100.00
51452;BME280;37521;52.020;-1.740;2022-08-11T03:59:28;100635.25;;;9.79;100.00
51452;BME280;37521;52.020;-1.740;2022-08-11T04:02:08;100635.44;;;9.73;100.00
51452;BME280;37521;52.020;-1.740;2022-08-11T04:14:10;100635.97;;;9.58;100.00
51452;BME280;37521;52.020;-1.740;2022-08-11T04:17:16;100632.47;;;9.56;100.00
51452;BME280;37521;52.020;-1.740;2022-08-11T04:20:14;100630.69;;;9.58;100.00
51452;BME280;37521;52.020;-1.740;2022-08-11T04:23:00;100637.56;;;9.62;100.00
51452;BME280;37521;52.020;-1.740;2022-08-11T04:25:48;100637.56;;;9.62;100.00
51452;BME280;37521;52.020;-1.740;2022-08-11T04:28:41;100634.22;;;9.57;100.00
51452;BME280;37521;52.020;-1.740;2022-08-11T04:31:42;100636.22;;;9.49;100.00
51452;BME280;37521;52.020;-1.740;2022-08-11T04:34:39;100643.44;;;9.44;100.00
51452;BME280;37521;52.020;-1.740;2022-08-11T04:37:29;100639.28;;;9.37;100.00
51452;BME280;37521;52.020;-1.740;2022-08-11T04:40:11;100645.44;;;9.36;100.00
51452;BME280;37521;52.020;-1.740;2022-08-11T04:43:20;100640.28;;;9.33;100.00
51452;BME280;37521;52.020;-1.740;2022-08-11T04:49:16;100634.28;;;9.27;100.00
51452;BME280;37521;52.020;-1.740;2022-08-11T04:52:20;100640.41;;;9.28;100.00
51452;BME280;37521;52.020;-1.740;2022-08-11T04:55:14;100637.75;;;9.28;100.00
51452;BME280;37521;52.020;-1.740;2022-08-11T04:58:15;100645.84;;;9.23;100.00
51452;BME280;37521;52.020;-1.740;2022-08-11T05:01:17;100643.38;;;9.17;100.00
51452;BME280;37521;52.020;-1.740;2022-08-11T05:04:34;100637.56;;;9.06;100.00
51452;BME280;37521;52.020;-1.740;2022-08-11T05:07:49;100635.84;;;9.05;100.00
51452;BME280;37521;52.020;-1.740;2022-08-11T05:10:44;100634.03;;;9.07;100.00
51452;BME280;37521;52.020;-1.740;2022-08-11T05:13:25;100644.31;;;9.16;100.00
51452;BME280;37521;52.020;-1.740;2022-08-11T05:16:16;100645.84;;;9.23;100.00
51452;BME280;37521;52.020;-1.740;2022-08-11T05:19:04;100640.22;;;9.34;100.00
51452;BME280;37521;52.020;-1.740;2022-08-11T05:21:53;100648.72;;;9.44;100.00
51452;BME280;37521;52.020;-1.740;2022-08-11T05:24:44;100647.63;;;9.49;100.00
51452;BME280;37521;52.020;-1.740;2022-08-11T05:27:37;100652.88;;;9.51;100.00
51452;BME280;37521;52.020;-1.740;2022-08-11T05:30:26;100649.38;;;9.50;100.00
51452;BME280;37521;52.020;-1.740;2022-08-11T05:33:19;100642.16;;;9.55;100.00
51452;BME280;37521;52.020;-1.740;2022-08-11T05:36:11;100642.84;;;9.62;100.00
51452;BME280;37521;52.020;-1.740;2022-08-11T05:38:52;100639.97;;;9.70;100.00
51452;BME280;37521;52.020;-1.740;2022-08-11T05:41:41;100638.00;;;9.76;100.00
51452;BME280;37521;52.020;-1.740;2022-08-11T05:44:28;100643.75;;;9.88;100.00
51452;BME280;37521;52.020;-1.740;2022-08-11T05:47:21;100652.28;;;9.96;100.00
51452;BME280;37521;52.020;-1.740;2022-08-11T05:50:10;100652.94;;;10.02;100.00
51452;BME280;37521;52.020;-1.740;2022-08-11T05:53:00;100656.09;;;10.14;100.00
51452;BME280;37521;52.020;-1.740;2022-08-11T05:55:50;100647.84;;;10.24;100.00
51452;BME280;37521;52.020;-1.740;2022-08-11T05:58:39;100652.78;;;10.33;100.00
51452;BME280;37521;52.020;-1.740;2022-08-11T06:01:09;100657.72;;;10.43;100.00
51452;BME280;37521;52.020;-1.740;2022-08-11T06:03:42;100657.41;;;10.52;100.00
51452;BME280;37521;52.020;-1.740;2022-08-11T06:06:26;100664.00;;;10.65;100.00
51452;BME280;37521;52.020;-1.740;2022-08-11T06:08:56;100658.34;;;10.74;100.00
51452;BME280;37521;52.020;-1.740;2022-08-11T06:11:25;100661.47;;;10.85;100.00
51452;BME280;37521;52.020;-1.740;2022-08-11T06:14:12;100661.03;;;10.98;100.00
51452;BME280;37521;52.020;-1.740;2022-08-11T06:16:42;100660.66;;;11.07;100.00
51452;BME280;37521;52.020;-1.740;2022-08-11T06:19:15;100665.66;;;11.14;100.00
51452;BME280;37521;52.020;-1.740;2022-08-11T06:21:44;100666.22;;;11.23;100.00
51452;BME280;37521;52.020;-1.740;2022-08-11T06:24:14;100669.25;;;11.35;100.00
51452;BME280;37521;52.020;-1.740;2022-08-11T06:26:47;100665.34;;;11.45;100.00
51452;BME280;37521;52.020;-1.740;2022-08-11T06:29:45;100658.66;;;11.59;100.00
51452;BME280;37521;52.020;-1.740;2022-08-11T06:32:24;100660.59;;;11.76;100.00
51452;BME280;37521;52.020;-1.740;2022-08-11T06:35:02;100659.03;;;11.93;100.00
51452;BME280;37521;52.020;-1.740;2022-08-11T06:37:40;100651.25;;;12.11;100.00
51452;BME280;37521;52.020;-1.740;2022-08-11T06:40:19;100657.75;;;12.24;100.00
51452;BME280;37521;52.020;-1.740;2022-08-11T06:42:56;100664.09;;;12.40;100.00
51452;BME280;37521;52.020;-1.740;2022-08-11T06:45:33;100668.19;;;12.47;100.00
51452;BME280;37521;52.020;-1.740;2022-08-11T06:48:14;100665.41;;;12.50;100.00
51452;BME280;37521;52.020;-1.740;2022-08-11T06:50:48;100665.28;;;12.53;100.00
51452;BME280;37521;52.020;-1.740;2022-08-11T06:53:35;100653.41;;;12.62;100.00
51452;BME280;37521;52.020;-1.740;2022-08-11T06:56:06;100654.00;;;12.69;100.00
51452;BME280;37521;52.020;-1.740;2022-08-11T06:58:53;100661.53;;;12.78;100.00
51452;BME280;37521;52.020;-1.740;2022-08-11T07:01:48;100658.97;;;12.95;100.00
51452;BME280;37521;52.020;-1.740;2022-08-11T07:04:28;100649.13;;;13.18;100.00
51452;BME280;37521;52.020;-1.740;2022-08-11T07:07:25;100652.91;;;13.50;100.00
51452;BME280;37521;52.020;-1.740;2022-08-11T07:10:32;100653.16;;;13.62;100.00
51452;BME280;37521;52.020;-1.740;2022-08-11T07:13:26;100652.22;;;13.63;100.00
51452;BME280;37521;52.020;-1.740;2022-08-11T07:16:12;100651.16;;;13.68;100.00
51452;BME280;37521;52.020;-1.740;2022-08-11T07:18:45;100650.31;;;13.67;100.00
51452;BME280;37521;52.020;-1.740;2022-08-11T07:21:33;100655.88;;;13.80;100.00
51452;BME280;37521;52.020;-1.740;2022-08-11T07:24:32;100646.66;;;13.87;100.00
51452;BME280;37521;52.020;-1.740;2022-08-11T07:27:31;100648.00;;;13.96;100.00
51452;BME280;37521;52.020;-1.740;2022-08-11T07:30:19;100646.13;;;14.15;100.00
51452;BME280;37521;52.020;-1.740;2022-08-11T07:32:50;100648.09;;;14.29;100.00
51452;BME280;37521;52.020;-1.740;2022-08-11T07:35:25;100652.25;;;14.52;100.00
51452;BME280;37521;52.020;-1.740;2022-08-11T07:37:58;100654.19;;;14.65;100.00
51452;BME280;37521;52.020;-1.740;2022-08-11T07:40:33;100655.41;;;14.76;100.00
51452;BME280;37521;52.020;-1.740;2022-08-11T07:43:02;100653.47;;;14.95;100.00
51452;BME280;37521;52.020;-1.740;2022-08-11T07:45:31;100652.81;;;15.23;100.00
51452;BME280;37521;52.020;-1.740;2022-08-11T07:48:18;100657.81;;;15.45;100.00
51452;BME280;37521;52.020;-1.740;2022-08-11T07:51:06;100651.81;;;15.41;100.00
51452;BME280;37521;52.020;-1.740;2022-08-11T07:53:52;100654.63;;;15.54;100.00
51452;BME280;37521;52.020;-1.740;2022-08-11T07:56:25;100651.41;;;15.65;100.00
51452;BME280;37521;52.020;-1.740;2022-08-11T07:59:13;100651.63;;;15.76;100.00
51452;BME280;37521;52.020;-1.740;2022-08-11T08:02:21;100655.34;;;16.03;100.00
51452;BME280;37521;52.020;-1.740;2022-08-11T08:05:07;100649.41;;;16.14;100.00
51452;BME280;37521;52.020;-1.740;2022-08-11T08:07:54;100647.16;;;16.37;100.00
51452;BME280;37521;52.020;-1.740;2022-08-11T08:10:43;100648.91;;;16.52;100.00
51452;BME280;37521;52.020;-1.740;2022-08-11T08:13:31;100652.34;;;16.68;100.00
51452;BME280;37521;52.020;-1.740;2022-08-11T08:16:18;100639.97;;;16.67;100.00
51452;BME280;37521;52.020;-1.740;2022-08-11T08:19:04;100641.13;;;16.77;100.00
51452;BME280;37521;52.020;-1.740;2022-08-11T08:21:33;100637.22;;;16.97;100.00
51452;BME280;37521;52.020;-1.740;2022-08-11T08:24:03;100634.38;;;17.14;100.00
51452;BME280;37521;52.020;-1.740;2022-08-11T08:26:34;100641.94;;;17.35;100.00
51452;BME280;37521;52.020;-1.740;2022-08-11T08:29:20;100640.31;;;17.47;100.00
51452;BME280;37521;52.020;-1.740;2022-08-11T08:32:07;100630.34;;;17.63;100.00
51452;BME280;37521;52.020;-1.740;2022-08-11T08:34:38;100631.94;;;17.80;98.60
51452;BME280;37521;52.020;-1.740;2022-08-11T08:37:07;100625.25;;;18.00;98.00
51452;BME280;37521;52.020;-1.740;2022-08-11T08:39:57;100627.38;;;17.94;99.04
51452;BME280;37521;52.020;-1.740;2022-08-11T08:42:27;100626.63;;;17.92;97.35
51452;BME280;37521;52.020;-1.740;2022-08-11T08:45:04;100622.38;;;18.03;98.57
51452;BME280;37521;52.020;-1.740;2022-08-11T08:47:35;100627.53;;;18.06;95.27
51452;BME280;37521;52.020;-1.740;2022-08-11T08:50:11;100630.09;;;18.20;91.17
51452;BME280;37521;52.020;-1.740;2022-08-11T08:52:48;100636.00;;;18.50;88.96
51452;BME280;37521;52.020;-1.740;2022-08-11T08:55:21;100624.06;;;18.69;88.39
51452;BME280;37521;52.020;-1.740;2022-08-11T08:57:51;100628.00;;;18.89;86.02
51452;BME280;37521;52.020;-1.740;2022-08-11T09:00:21;100625.63;;;19.10;84.79
51452;BME280;37521;52.020;-1.740;2022-08-11T09:02:50;100619.91;;;19.27;80.35
51452;BME280;37521;52.020;-1.740;2022-08-11T09:05:19;100619.97;;;19.38;77.90
51452;BME280;37521;52.020;-1.740;2022-08-11T09:07:49;100612.44;;;19.43;79.12
51452;BME280;37521;52.020;-1.740;2022-08-11T09:10:26;100617.75;;;19.69;73.67
51452;BME280;37521;52.020;-1.740;2022-08-11T09:12:57;100607.66;;;20.07;70.42
51452;BME280;37521;52.020;-1.740;2022-08-11T09:15:26;100609.84;;;20.49;68.24
51452;BME280;37521;52.020;-1.740;2022-08-11T09:17:56;100612.31;;;20.63;65.54
51452;BME280;37521;52.020;-1.740;2022-08-11T09:20:33;100604.63;;;20.70;64.46
51452;BME280;37521;52.020;-1.740;2022-08-11T09:23:03;100604.16;;;20.87;62.70
51452;BME280;37521;52.020;-1.740;2022-08-11T09:26:11;100607.03;;;21.40;61.66
51452;BME280;37521;52.020;-1.740;2022-08-11T09:28:58;100605.69;;;21.77;60.07
51452;BME280;37521;52.020;-1.740;2022-08-11T09:31:30;100605.81;;;22.08;59.42
51452;BME280;37521;52.020;-1.740;2022-08-11T09:34:06;100603.47;;;22.36;57.86
51452;BME280;37521;52.020;-1.740;2022-08-11T09:36:37;100594.38;;;22.57;57.42
51452;BME280;37521;52.020;-1.740;2022-08-11T09:39:25;100600.47;;;22.80;54.13
51452;BME280;37521;52.020;-1.740;2022-08-11T09:42:14;100592.38;;;22.80;53.57
51452;BME280;37521;52.020;-1.740;2022-08-11T09:44:49;100591.47;;;22.70;52.68
51452;BME280;37521;52.020;-1.740;2022-08-11T09:47:21;100593.34;;;22.79;51.95
51452;BME280;37521;52.020;-1.740;2022-08-11T09:49:52;100584.50;;;22.89;51.46
51452;BME280;37521;52.020;-1.740;2022-08-11T09:52:28;100593.78;;;22.84;50.79
51452;BME280;37521;52.020;-1.740;2022-08-11T09:54:58;100595.63;;;22.84;51.82
51452;BME280;37521;52.020;-1.740;2022-08-11T09:57:28;100586.75;;;22.93;49.54
51452;BME280;37521;52.020;-1.740;2022-08-11T10:00:16;100582.78;;;23.37;48.12
51452;BME280;37521;52.020;-1.740;2022-08-11T10:02:54;100582.97;;;23.65;47.10
51452;BME280;37521;52.020;-1.740;2022-08-11T10:05:23;100576.16;;;23.80;46.89
51452;BME280;37521;52.020;-1.740;2022-08-11T10:08:11;100574.03;;;23.93;45.46
51452;BME280;37521;52.020;-1.740;2022-08-11T10:10:41;100563.63;;;24.18;43.98
51452;BME280;37521;52.020;-1.740;2022-08-11T10:13:15;100568.22;;;24.08;44.32
51452;BME280;37521;52.020;-1.740;2022-08-11T10:16:07;100574.88;;;24.04;43.67
51452;BME280;37521;52.020;-1.740;2022-08-11T10:18:43;100573.63;;;24.08;42.93
51452;BME280;37521;52.020;-1.740;2022-08-11T10:21:27;100572.03;;;24.34;40.57
51452;BME280;37521;52.020;-1.740;2022-08-11T10:23:59;100570.66;;;24.58;40.58
51452;BME280;37521;52.020;-1.740;2022-08-11T10:26:46;100568.28;;;24.55;39.62
51452;BME280;37521;52.020;-1.740;2022-08-11T10:29:23;100560.47;;;24.89;38.79
51452;BME280;37521;52.020;-1.740;2022-08-11T10:32:19;100567.38;;;25.46;39.11
51452;BME280;37521;52.020;-1.740;2022-08-11T10:35:24;100566.59;;;25.36;37.91
51452;BME280;37521;52.020;-1.740;2022-08-11T10:37:54;100560.59;;;25.42;35.96
51452;BME280;37521;52.020;-1.740;2022-08-11T10:40:36;100559.03;;;25.58;34.59
51452;BME280;37521;52.020;-1.740;2022-08-11T10:43:07;100558.75;;;25.96;33.41
51452;BME280;37521;52.020;-1.740;2022-08-11T10:45:44;100560.72;;;25.94;35.63
51452;BME280;37521;52.020;-1.740;2022-08-11T10:48:34;100565.69;;;25.81;35.40
51452;BME280;37521;52.020;-1.740;2022-08-11T10:51:04;100559.97;;;25.48;36.28
51452;BME280;37521;52.020;-1.740;2022-08-11T10:54:13;100560.75;;;25.59;34.74
51452;BME280;37521;52.020;-1.740;2022-08-11T10:57:00;100559.53;;;25.89;35.16
51452;BME280;37521;52.020;-1.740;2022-08-11T10:59:46;100549.06;;;25.94;34.18
51452;BME280;37521;52.020;-1.740;2022-08-11T11:02:17;100543.16;;;26.16;32.15
51452;BME280;37521;52.020;-1.740;2022-08-11T11:04:57;100537.69;;;26.34;34.39
51452;BME280;37521;52.020;-1.740;2022-08-11T11:07:34;100538.16;;;26.03;33.55
51452;BME280;37521;52.020;-1.740;2022-08-11T11:10:10;100542.19;;;26.25;33.92
51452;BME280;37521;52.020;-1.740;2022-08-11T11:12:42;100535.38;;;26.21;35.22
51452;BME280;37521;52.020;-1.740;2022-08-11T11:15:30;100530.19;;;26.28;34.28
51452;BME280;37521;52.020;-1.740;2022-08-11T11:18:21;100538.38;;;26.36;32.51
51452;BME280;37521;52.020;-1.740;2022-08-11T11:20:54;100541.06;;;26.96;31.56
51452;BME280;37521;52.020;-1.740;2022-08-11T11:23:27;100529.81;;;27.17;32.26
51452;BME280;37521;52.020;-1.740;2022-08-11T11:26:06;100529.56;;;27.02;33.34
51452;BME280;37521;52.020;-1.740;2022-08-11T11:29:03;100534.06;;;26.77;32.38
51452;BME280;37521;52.020;-1.740;2022-08-11T11:31:45;100528.66;;;26.85;32.51
51452;BME280;37521;52.020;-1.740;2022-08-11T11:34:22;100527.59;;;27.12;33.45
51452;BME280;37521;52.020;-1.740;2022-08-11T11:36:55;100533.00;;;27.12;33.79
51452;BME280;37521;52.020;-1.740;2022-08-11T11:39:25;100519.16;;;27.40;29.59
51452;BME280;37521;52.020;-1.740;2022-08-11T11:42:00;100528.84;;;27.51;31.02
51452;BME280;37521;52.020;-1.740;2022-08-11T11:44:31;100533.09;;;27.45;29.72
51452;BME280;37521;52.020;-1.740;2022-08-11T11:47:01;100518.50;;;28.19;28.73
51452;BME280;37521;52.020;-1.740;2022-08-11T11:49:31;100522.41;;;28.81;29.00
51452;BME280;37521;52.020;-1.740;2022-08-11T11:52:02;100513.03;;;28.52;28.26
51452;BME280;37521;52.020;-1.740;2022-08-11T11:54:31;100511.72;;;28.32;28.72
51452;BME280;37521;52.020;-1.740;2022-08-11T11:57:03;100510.88;;;28.15;29.71
51452;BME280;37521;52.020;-1.740;2022-08-11T11:59:47;100507.47;;;28.13;28.86
51452;BME280;37521;52.020;-1.740;2022-08-11T12:02:35;100507.31;;;28.31;27.02
51452;BME280;37521;52.020;-1.740;2022-08-11T12:05:06;100509.41;;;28.60;27.25
51452;BME280;37521;52.020;-1.740;2022-08-11T12:07:37;100493.84;;;28.45;27.13
51452;BME280;37521;52.020;-1.740;2022-08-11T12:10:38;100488.97;;;28.08;28.94
51452;BME280;37521;52.020;-1.740;2022-08-11T12:13:07;100494.97;;;27.79;31.89
51452;BME280;37521;52.020;-1.740;2022-08-11T12:15:54;100496.19;;;27.77;30.93
51452;BME280;37521;52.020;-1.740;2022-08-11T12:18:44;100492.59;;;27.68;30.15
51452;BME280;37521;52.020;-1.740;2022-08-11T12:21:19;100495.84;;;27.72;29.32
51452;BME280;37521;52.020;-1.740;2022-08-11T12:23:49;100486.97;;;27.94;30.26
51452;BME280;37521;52.020;-1.740;2022-08-11T12:26:35;100485.97;;;28.03;31.85
51452;BME280;37521;52.020;-1.740;2022-08-11T12:29:39;100481.78;;;28.56;30.35
51452;BME280;37521;52.020;-1.740;2022-08-11T12:32:10;100471.75;;;28.96;29.75
51452;BME280;37521;52.020;-1.740;2022-08-11T12:34:39;100473.47;;;28.81;29.38
51452;BME280;37521;52.020;-1.740;2022-08-11T12:37:09;100464.97;;;28.92;28.41
51452;BME280;37521;52.020;-1.740;2022-08-11T12:39:43;100473.06;;;29.00;27.73
51452;BME280;37521;52.020;-1.740;2022-08-11T12:42:51;100456.53;;;29.33;27.06
51452;BME280;37521;52.020;-1.740;2022-08-11T12:45:50;100459.75;;;29.59;27.73
51452;BME280;37521;52.020;-1.740;2022-08-11T12:48:28;100452.31;;;29.53;28.61
51452;BME280;37521;52.020;-1.740;2022-08-11T12:51:31;100453.22;;;29.45;27.69
51452;BME280;37521;52.020;-1.740;2022-08-11T12:54:44;100448.00;;;29.36;27.73
51452;BME280;37521;52.020;-1.740;2022-08-11T12:57:22;100436.84;;;29.30;26.12
51452;BME280;37521;52.020;-1.740;2022-08-11T13:00:10;100436.13;;;29.37;26.58
51452;BME280;37521;52.020;-1.740;2022-08-11T13:02:56;100432.91;;;29.56;28.00
51452;BME280;37521;52.020;-1.740;2022-08-11T13:05:45;100425.75;;;29.93;25.75
51452;BME280;37521;52.020;-1.740;2022-08-11T13:08:15;100426.75;;;29.77;28.13
51452;BME280;37521;52.020;-1.740;2022-08-11T13:10:46;100431.41;;;29.68;27.40
51452;BME280;37521;52.020;-1.740;2022-08-11T13:13:35;100426.41;;;29.34;27.86
51452;BME280;37521;52.020;-1.740;2022-08-11T13:16:26;100426.84;;;29.46;27.08
51452;BME280;37521;52.020;-1.740;2022-08-11T13:18:59;100428.88;;;29.52;26.97
51452;BME280;37521;52.020;-1.740;2022-08-11T13:21:28;100422.44;;;29.45;27.65
51452;BME280;37521;52.020;-1.740;2022-08-11T13:23:57;100420.97;;;29.34;27.27
51452;BME280;37521;52.020;-1.740;2022-08-11T13:26:33;100410.50;;;29.46;27.95
51452;BME280;37521;52.020;-1.740;2022-08-11T13:29:17;100413.38;;;29.29;27.09
51452;BME280;37521;52.020;-1.740;2022-08-11T13:31:47;100413.88;;;29.56;25.44
51452;BME280;37521;52.020;-1.740;2022-08-11T13:34:16;100414.66;;;29.79;26.48
51452;BME280;37521;52.020;-1.740;2022-08-11T13:36:47;100411.06;;;29.64;26.51
51452;BME280;37521;52.020;-1.740;2022-08-11T13:39:16;100406.34;;;29.58;27.58
51452;BME280;37521;52.020;-1.740;2022-08-11T13:41:47;100403.00;;;29.56;27.01
51452;BME280;37521;52.020;-1.740;2022-08-11T13:44:16;100401.47;;;29.68;25.90
51452;BME280;37521;52.020;-1.740;2022-08-11T13:46:52;100392.69;;;29.96;27.69
51452;BME280;37521;52.020;-1.740;2022-08-11T13:49:22;100394.84;;;30.45;26.70
51452;BME280;37521;52.020;-1.740;2022-08-11T13:51:51;100400.66;;;30.42;26.75
51452;BME280;37521;52.020;-1.740;2022-08-11T13:54:23;100394.78;;;30.23;26.17
51452;BME280;37521;52.020;-1.740;2022-08-11T13:56:55;100395.81;;;30.22;26.29
51452;BME280;37521;52.020;-1.740;2022-08-11T13:59:24;100386.31;;;30.03;26.95
51452;BME280;37521;52.020;-1.740;2022-08-11T14:01:59;100387.41;;;29.79;26.03
51452;BME280;37521;52.020;-1.740;2022-08-11T14:04:53;100379.06;;;29.96;24.85
51452;BME280;37521;52.020;-1.740;2022-08-11T14:07:25;100379.03;;;30.55;25.96
51452;BME280;37521;52.020;-1.740;2022-08-11T14:09:57;100379.88;;;30.55;25.56
51452;BME280;37521;52.020;-1.740;2022-08-11T14:12:29;100385.94;;;30.06;25.72
51452;BME280;37521;52.020;-1.740;2022-08-11T14:15:19;100374.19;;;29.91;27.48
51452;BME280;37521;52.020;-1.740;2022-08-11T14:17:51;100369.69;;;29.98;27.42
51452;BME280;37521;52.020;-1.740;2022-08-11T14:20:22;100375.50;;;29.95;26.86
51452;BME280;37521;52.020;-1.740;2022-08-11T14:23:13;100370.91;;;29.96;25.67
51452;BME280;37521;52.020;-1.740;2022-08-11T14:25:41;100368.84;;;29.98;25.64
51452;BME280;37521;52.020;-1.740;2022-08-11T14:28:33;100380.09;;;29.95;25.62